Airfield :
LOGIN :

Register | Disclaimer

   EN    FR    IT 

 










Legend :    VFR   Marginal VFR   IFR   Intensive IFR   Very Intensive IFR
Visi :
Ceiling :
>= 8 km
>= 3000ft
5 to 8 km
1000 to 3000 ft
1500m to 5 km
500 to 1000 ft
800 to 1500m
200 to 500 ft
< 800m
< 200 ft
Symbols :   Thunderstorms  Fog  Heavy snow  Heavy precipitations  Wind > 20 kt
SIGMETs :     Misc.  Thunderstorms  Icing  Turbulence  Mountain Waves  Volcanic Ashes







- Airport Elevation : 308 ft
- IATA code : POZ


EPPO - Poznan-Lawica

CURRENT METAR :
  • 230900Z 16006KT CAVOK 06/04 Q1010

EXPIRED METARs :
  • 230830Z 15007KT 9000 NSC 05/04 Q1010
  • 230800Z 17005KT 6000 NSC 05/04 Q1010
  • 230730Z 15005KT 5000 BR NSC 04/03 Q1010
  • 230700Z 15006KT 3500 BR NSC 03/03 Q1010
  • 230630Z 16006KT 4000 BR NSC 03/03 Q1010

TAF TAF EPPO
Valid from the 23 at 06:00 until the 24 at 06:00 UTC


230530Z 2306/2406 16006KT CAVOK
TEMPO 2306/2308 3000 BR
PROB30 2306/2307 0500 FG
No reported NOTAMs for that airfield.



MET'MAP, your aeronautical weather chart ! - Copyright ORBIFLY December 2007 - Disclaimer

ORBIFLY MET'MAP TEAM :

Programming & Development : Alexandra Zaïnal
Concept & Development : Baudouin d'Aumeries
Co-Development & Prog : Marc-Olivier Méhu
Technical & hardware support : Manuel Goepfert

Contact : metmap@orbifly.com




SOURCES & CREDITS :

   NOAA